sensor_id;sensor_type;location;lat;lon;timestamp;pressure;altitude;pressure_sealevel;temperature
74750;BMP280;63269;53.330;-6.288;2023-09-19T00:00:22;99928.81;;;21.82
74750;BMP280;63269;53.330;-6.288;2023-09-19T00:02:54;99916.66;;;21.81
74750;BMP280;63269;53.330;-6.288;2023-09-19T00:05:22;99906.41;;;21.79
74750;BMP280;63269;53.330;-6.288;2023-09-19T00:07:53;99906.41;;;21.79
74750;BMP280;63269;53.330;-6.288;2023-09-19T00:10:24;99913.66;;;21.79
74750;BMP280;63269;53.330;-6.288;2023-09-19T00:12:53;99911.75;;;21.79
74750;BMP280;63269;53.330;-6.288;2023-09-19T00:15:27;99911.75;;;21.79
74750;BMP280;63269;53.330;-6.288;2023-09-19T00:17:56;99914.91;;;21.78
74750;BMP280;63269;53.330;-6.288;2023-09-19T00:20:22;99914.91;;;21.78
74750;BMP280;63269;53.330;-6.288;2023-09-19T00:22:51;99912.69;;;21.76
74750;BMP280;63269;53.330;-6.288;2023-09-19T00:25:17;99919.94;;;21.76
74750;BMP280;63269;53.330;-6.288;2023-09-19T00:27:43;99930.63;;;21.76
74750;BMP280;63269;53.330;-6.288;2023-09-19T00:30:11;99925.28;;;21.76
74750;BMP280;63269;53.330;-6.288;2023-09-19T00:32:40;99919.22;;;21.75
74750;BMP280;63269;53.330;-6.288;2023-09-19T00:35:06;99916.53;;;21.75
74750;BMP280;63269;53.330;-6.288;2023-09-19T00:37:34;99924.53;;;21.75
74750;BMP280;63269;53.330;-6.288;2023-09-19T00:39:59;99916.53;;;21.75
74750;BMP280;63269;53.330;-6.288;2023-09-19T00:42:24;99916.53;;;21.75
74750;BMP280;63269;53.330;-6.288;2023-09-19T00:44:51;99915.09;;;21.74
74750;BMP280;63269;53.330;-6.288;2023-09-19T00:47:17;99914.34;;;21.74
74750;BMP280;63269;53.330;-6.288;2023-09-19T00:49:46;99914.34;;;21.74
74750;BMP280;63269;53.330;-6.288;2023-09-19T00:52:15;99912.84;;;21.73
74750;BMP280;63269;53.330;-6.288;2023-09-19T00:54:41;99915.53;;;21.73
74750;BMP280;63269;53.330;-6.288;2023-09-19T00:57:06;99912.84;;;21.73
74750;BMP280;63269;53.330;-6.288;2023-09-19T00:59:34;99905.31;;;21.71
74750;BMP280;63269;53.330;-6.288;2023-09-19T01:02:02;99905.31;;;21.71
74750;BMP280;63269;53.330;-6.288;2023-09-19T01:04:28;99893.16;;;21.70
74750;BMP280;63269;53.330;-6.288;2023-09-19T01:06:54;99892.44;;;21.70
74750;BMP280;63269;53.330;-6.288;2023-09-19T01:09:20;99882.94;;;21.69
74750;BMP280;63269;53.330;-6.288;2023-09-19T01:11:48;99882.94;;;21.69
74750;BMP280;63269;53.330;-6.288;2023-09-19T01:20:11;99868.59;;;21.66
74750;BMP280;63269;53.330;-6.288;2023-09-19T01:26:03;99859.84;;;21.66
74750;BMP280;63269;53.330;-6.288;2023-09-19T01:28:54;99845.78;;;21.65
74750;BMP280;63269;53.330;-6.288;2023-09-19T01:31:29;99832.13;;;21.63
74750;BMP280;63269;53.330;-6.288;2023-09-19T01:34:00;99826.06;;;21.63
74750;BMP280;63269;53.330;-6.288;2023-09-19T01:36:28;99822.22;;;21.64
74750;BMP280;63269;53.330;-6.288;2023-09-19T01:38:55;99822.22;;;21.64
74750;BMP280;63269;53.330;-6.288;2023-09-19T01:41:36;99804.72;;;21.63
74750;BMP280;63269;53.330;-6.288;2023-09-19T01:44:06;99804.72;;;21.63
74750;BMP280;63269;53.330;-6.288;2023-09-19T01:46:35;99792.59;;;21.61
74750;BMP280;63269;53.330;-6.288;2023-09-19T01:49:18;99775.84;;;21.61
74750;BMP280;63269;53.330;-6.288;2023-09-19T01:52:02;99765.19;;;21.61
74750;BMP280;63269;53.330;-6.288;2023-09-19T01:54:52;99759.09;;;21.60
74750;BMP280;63269;53.330;-6.288;2023-09-19T01:57:29;99763.25;;;21.61
74750;BMP280;63269;53.330;-6.288;2023-09-19T02:00:02;99747.69;;;21.60
74750;BMP280;63269;53.330;-6.288;2023-09-19T02:02:35;99732.13;;;21.58
74750;BMP280;63269;53.330;-6.288;2023-09-19T02:05:02;99723.66;;;21.60
74750;BMP280;63269;53.330;-6.288;2023-09-19T02:07:29;99723.66;;;21.60
74750;BMP280;63269;53.330;-6.288;2023-09-19T02:09:57;99710.78;;;21.58
74750;BMP280;63269;53.330;-6.288;2023-09-19T02:12:24;99716.13;;;21.58
74750;BMP280;63269;53.330;-6.288;2023-09-19T02:14:49;99703.25;;;21.57
74750;BMP280;63269;53.330;-6.288;2023-09-19T02:17:15;99701.31;;;21.57
74750;BMP280;63269;53.330;-6.288;2023-09-19T02:19:40;99701.31;;;21.57
74750;BMP280;63269;53.330;-6.288;2023-09-19T02:22:06;99692.59;;;21.57
74750;BMP280;63269;53.330;-6.288;2023-09-19T02:24:33;99683.41;;;21.58
74750;BMP280;63269;53.330;-6.288;2023-09-19T02:26:58;99679.97;;;21.57
74750;BMP280;63269;53.330;-6.288;2023-09-19T02:29:28;99675.38;;;21.58
74750;BMP280;63269;53.330;-6.288;2023-09-19T02:31:55;99656.72;;;21.58
74750;BMP280;63269;53.330;-6.288;2023-09-19T02:34:21;99655.22;;;21.57
74750;BMP280;63269;53.330;-6.288;2023-09-19T02:36:47;99650.63;;;21.57
74750;BMP280;63269;53.330;-6.288;2023-09-19T02:39:12;99623.66;;;21.55
74750;BMP280;63269;53.330;-6.288;2023-09-19T02:41:38;99615.94;;;21.57
74750;BMP280;63269;53.330;-6.288;2023-09-19T02:44:04;99615.94;;;21.57
74750;BMP280;63269;53.330;-6.288;2023-09-19T02:46:33;99605.72;;;21.56
74750;BMP280;63269;53.330;-6.288;2023-09-19T02:48:58;99595.50;;;21.54
74750;BMP280;63269;53.330;-6.288;2023-09-19T02:51:24;99584.38;;;21.56
74750;BMP280;63269;53.330;-6.288;2023-09-19T02:53:50;99575.66;;;21.55
74750;BMP280;63269;53.330;-6.288;2023-09-19T02:56:18;99562.31;;;21.55
74750;BMP280;63269;53.330;-6.288;2023-09-19T02:58:43;99547.03;;;21.56
74750;BMP280;63269;53.330;-6.288;2023-09-19T03:01:12;99538.28;;;21.55
74750;BMP280;63269;53.330;-6.288;2023-09-19T03:03:37;99515.00;;;21.56
74750;BMP280;63269;53.330;-6.288;2023-09-19T03:06:07;99509.66;;;21.56
74750;BMP280;63269;53.330;-6.288;2023-09-19T03:08:34;99496.56;;;21.52
74750;BMP280;63269;53.330;-6.288;2023-09-19T03:11:03;99496.56;;;21.52
74750;BMP280;63269;53.330;-6.288;2023-09-19T03:13:33;99482.47;;;21.52
74750;BMP280;63269;53.330;-6.288;2023-09-19T03:15:59;99477.13;;;21.52
74750;BMP280;63269;53.330;-6.288;2023-09-19T03:18:24;99469.88;;;21.52
74750;BMP280;63269;53.330;-6.288;2023-09-19T03:20:55;99457.25;;;21.53
74750;BMP280;63269;53.330;-6.288;2023-09-19T03:23:21;99462.13;;;21.54
74750;BMP280;63269;53.330;-6.288;2023-09-19T03:25:47;99437.09;;;21.52
74750;BMP280;63269;53.330;-6.288;2023-09-19T03:28:13;99421.84;;;21.52
74750;BMP280;63269;53.330;-6.288;2023-09-19T03:30:40;99406.56;;;21.53
74750;BMP280;63269;53.330;-6.288;2023-09-19T03:33:05;99382.56;;;21.53
74750;BMP280;63269;53.330;-6.288;2023-09-19T03:35:31;99369.22;;;21.53
74750;BMP280;63269;53.330;-6.288;2023-09-19T03:37:56;99369.22;;;21.53
74750;BMP280;63269;53.330;-6.288;2023-09-19T03:40:23;99349.84;;;21.52
74750;BMP280;63269;53.330;-6.288;2023-09-19T03:42:49;99349.84;;;21.52
74750;BMP280;63269;53.330;-6.288;2023-09-19T03:45:14;99339.16;;;21.52
74750;BMP280;63269;53.330;-6.288;2023-09-19T03:47:41;99339.16;;;21.52
74750;BMP280;63269;53.330;-6.288;2023-09-19T03:50:07;99323.16;;;21.52
74750;BMP280;63269;53.330;-6.288;2023-09-19T03:52:33;99304.47;;;21.52
74750;BMP280;63269;53.330;-6.288;2023-09-19T03:54:59;99304.47;;;21.52
74750;BMP280;63269;53.330;-6.288;2023-09-19T03:57:26;99298.41;;;21.52
74750;BMP280;63269;53.330;-6.288;2023-09-19T03:59:51;99293.81;;;21.52
74750;BMP280;63269;53.330;-6.288;2023-09-19T04:02:19;99280.19;;;21.50
74750;BMP280;63269;53.330;-6.288;2023-09-19T04:04:51;99233.19;;;21.53
74750;BMP280;63269;53.330;-6.288;2023-09-19T04:07:17;99233.19;;;21.53
74750;BMP280;63269;53.330;-6.288;2023-09-19T04:09:44;99230.97;;;21.51
74750;BMP280;63269;53.330;-6.288;2023-09-19T04:12:11;99196.31;;;21.51
74750;BMP280;63269;53.330;-6.288;2023-09-19T04:14:37;99196.31;;;21.51
74750;BMP280;63269;53.330;-6.288;2023-09-19T04:17:03;99200.16;;;21.50
74750;BMP280;63269;53.330;-6.288;2023-09-19T04:19:30;99191.47;;;21.50
74750;BMP280;63269;53.330;-6.288;2023-09-19T04:21:55;99189.50;;;21.50
74750;BMP280;63269;53.330;-6.288;2023-09-19T04:24:21;99189.50;;;21.50
74750;BMP280;63269;53.330;-6.288;2023-09-19T04:26:46;99186.81;;;21.50
74750;BMP280;63269;53.330;-6.288;2023-09-19T04:29:12;99159.47;;;21.50
74750;BMP280;63269;53.330;-6.288;2023-09-19T04:31:39;99164.03;;;21.49
74750;BMP280;63269;53.330;-6.288;2023-09-19T04:34:06;99140.78;;;21.50
74750;BMP280;63269;53.330;-6.288;2023-09-19T04:36:31;99133.47;;;21.50
74750;BMP280;63269;53.330;-6.288;2023-09-19T04:38:56;99132.28;;;21.51
74750;BMP280;63269;53.330;-6.288;2023-09-19T04:41:22;99125.00;;;21.52
74750;BMP280;63269;53.330;-6.288;2023-09-19T04:43:48;99123.53;;;21.51
74750;BMP280;63269;53.330;-6.288;2023-09-19T04:46:16;99123.53;;;21.51
74750;BMP280;63269;53.330;-6.288;2023-09-19T04:48:43;99095.66;;;21.52
74750;BMP280;63269;53.330;-6.288;2023-09-19T04:51:08;99101.75;;;21.52
74750;BMP280;63269;53.330;-6.288;2023-09-19T04:53:33;99101.75;;;21.52
74750;BMP280;63269;53.330;-6.288;2023-09-19T04:55:59;99115.09;;;21.52
74750;BMP280;63269;53.330;-6.288;2023-09-19T04:58:24;99115.09;;;21.52
74750;BMP280;63269;53.330;-6.288;2023-09-19T05:00:50;99081.13;;;21.53
74750;BMP280;63269;53.330;-6.288;2023-09-19T05:03:16;99093.00;;;21.52
74750;BMP280;63269;53.330;-6.288;2023-09-19T05:05:42;99099.09;;;21.52
74750;BMP280;63269;53.330;-6.288;2023-09-19T05:08:08;99060.53;;;21.53
74750;BMP280;63269;53.330;-6.288;2023-09-19T05:10:35;99073.13;;;21.53
74750;BMP280;63269;53.330;-6.288;2023-09-19T05:13:03;99073.13;;;21.53
74750;BMP280;63269;53.330;-6.288;2023-09-19T05:15:30;99083.09;;;21.52
74750;BMP280;63269;53.330;-6.288;2023-09-19T05:17:56;99079.19;;;21.53
74750;BMP280;63269;53.330;-6.288;2023-09-19T05:20:21;99079.19;;;21.53
74750;BMP280;63269;53.330;-6.288;2023-09-19T05:23:05;99091.81;;;21.53
74750;BMP280;63269;53.330;-6.288;2023-09-19T05:25:33;99061.28;;;21.54
74750;BMP280;63269;53.330;-6.288;2023-09-19T05:28:02;99045.00;;;21.52
74750;BMP280;63269;53.330;-6.288;2023-09-19T05:30:29;99065.13;;;21.53
74750;BMP280;63269;53.330;-6.288;2023-09-19T05:32:54;99042.59;;;21.54
74750;BMP280;63269;53.330;-6.288;2023-09-19T05:35:21;99042.59;;;21.54
74750;BMP280;63269;53.330;-6.288;2023-09-19T05:37:50;99038.69;;;21.55
74750;BMP280;63269;53.330;-6.288;2023-09-19T05:40:17;99038.69;;;21.55
74750;BMP280;63269;53.330;-6.288;2023-09-19T05:42:42;99022.69;;;21.55
74750;BMP280;63269;53.330;-6.288;2023-09-19T05:45:09;99022.69;;;21.55
74750;BMP280;63269;53.330;-6.288;2023-09-19T05:47:39;99037.97;;;21.54
74750;BMP280;63269;53.330;-6.288;2023-09-19T05:50:06;99016.63;;;21.54
74750;BMP280;63269;53.330;-6.288;2023-09-19T05:52:36;99038.69;;;21.55
74750;BMP280;63269;53.330;-6.288;2023-09-19T05:55:06;99038.69;;;21.55
74750;BMP280;63269;53.330;-6.288;2023-09-19T05:57:33;99019.28;;;21.54
74750;BMP280;63269;53.330;-6.288;2023-09-19T05:59:59;99010.81;;;21.56
74750;BMP280;63269;53.330;-6.288;2023-09-19T06:02:24;99010.81;;;21.56
74750;BMP280;63269;53.330;-6.288;2023-09-19T06:04:54;99012.75;;;21.55
74750;BMP280;63269;53.330;-6.288;2023-09-19T06:07:21;99012.75;;;21.55
74750;BMP280;63269;53.330;-6.288;2023-09-19T06:09:47;99021.25;;;21.54
74750;BMP280;63269;53.330;-6.288;2023-09-19T06:12:12;99017.63;;;21.57
74750;BMP280;63269;53.330;-6.288;2023-09-19T06:14:40;99025.63;;;21.57
74750;BMP280;63269;53.330;-6.288;2023-09-19T06:17:06;99025.63;;;21.57
74750;BMP280;63269;53.330;-6.288;2023-09-19T06:19:31;99023.44;;;21.55
74750;BMP280;63269;53.330;-6.288;2023-09-19T06:21:58;99023.44;;;21.55
74750;BMP280;63269;53.330;-6.288;2023-09-19T06:24:24;99006.69;;;21.55
74750;BMP280;63269;53.330;-6.288;2023-09-19T06:26:51;99020.75;;;21.55
74750;BMP280;63269;53.330;-6.288;2023-09-19T06:29:18;99012.28;;;21.57
74750;BMP280;63269;53.330;-6.288;2023-09-19T06:31:43;99012.28;;;21.57
74750;BMP280;63269;53.330;-6.288;2023-09-19T06:34:10;99005.75;;;21.58
74750;BMP280;63269;53.330;-6.288;2023-09-19T06:36:35;99005.75;;;21.58
74750;BMP280;63269;53.330;-6.288;2023-09-19T06:39:01;99010.34;;;21.57
74750;BMP280;63269;53.330;-6.288;2023-09-19T06:41:27;99025.13;;;21.58
74750;BMP280;63269;53.330;-6.288;2023-09-19T06:43:52;99025.13;;;21.58
74750;BMP280;63269;53.330;-6.288;2023-09-19T06:46:19;99005.00;;;21.57
74750;BMP280;63269;53.330;-6.288;2023-09-19T06:48:44;99015.69;;;21.57
74750;BMP280;63269;53.330;-6.288;2023-09-19T06:51:12;99007.19;;;21.59
74750;BMP280;63269;53.330;-6.288;2023-09-19T06:53:37;99009.13;;;21.58
74750;BMP280;63269;53.330;-6.288;2023-09-19T06:56:06;99023.19;;;21.59
74750;BMP280;63269;53.330;-6.288;2023-09-19T06:58:31;99021.28;;;21.59
74750;BMP280;63269;53.330;-6.288;2023-09-19T07:00:57;99010.59;;;21.59
74750;BMP280;63269;53.330;-6.288;2023-09-19T07:03:22;99013.25;;;21.59
74750;BMP280;63269;53.330;-6.288;2023-09-19T07:05:51;99014.47;;;21.58
74750;BMP280;63269;53.330;-6.288;2023-09-19T07:08:18;99031.94;;;21.59
74750;BMP280;63269;53.330;-6.288;2023-09-19T07:10:44;99027.31;;;21.60
74750;BMP280;63269;53.330;-6.288;2023-09-19T07:13:14;99027.31;;;21.60
74750;BMP280;63269;53.330;-6.288;2023-09-19T07:15:43;99038.00;;;21.60
74750;BMP280;63269;53.330;-6.288;2023-09-19T07:18:17;99042.16;;;21.61
74750;BMP280;63269;53.330;-6.288;2023-09-19T07:20:44;99051.59;;;21.62
74750;BMP280;63269;53.330;-6.288;2023-09-19T07:23:20;99044.06;;;21.60
74750;BMP280;63269;53.330;-6.288;2023-09-19T07:25:47;99046.72;;;21.60
74750;BMP280;63269;53.330;-6.288;2023-09-19T07:28:14;99056.94;;;21.62
74750;BMP280;63269;53.330;-6.288;2023-09-19T07:30:40;99056.94;;;21.62
74750;BMP280;63269;53.330;-6.288;2023-09-19T07:33:07;99056.94;;;21.62
74750;BMP280;63269;53.330;-6.288;2023-09-19T07:35:32;99069.53;;;21.61
74750;BMP280;63269;53.330;-6.288;2023-09-19T07:37:58;99061.53;;;21.61
74750;BMP280;63269;53.330;-6.288;2023-09-19T07:40:27;99083.13;;;21.64
74750;BMP280;63269;53.330;-6.288;2023-09-19T07:42:55;99083.13;;;21.64
74750;BMP280;63269;53.330;-6.288;2023-09-19T07:45:20;99062.50;;;21.64
74750;BMP280;63269;53.330;-6.288;2023-09-19T07:47:47;99064.72;;;21.66
74750;BMP280;63269;53.330;-6.288;2023-09-19T07:50:13;99064.72;;;21.66
74750;BMP280;63269;53.330;-6.288;2023-09-19T07:52:38;99086.06;;;21.66
74750;BMP280;63269;53.330;-6.288;2023-09-19T07:55:08;99090.91;;;21.67
74750;BMP280;63269;53.330;-6.288;2023-09-19T07:57:37;99089.75;;;21.74
74750;BMP280;63269;53.330;-6.288;2023-09-19T08:00:03;99089.75;;;21.74
74750;BMP280;63269;53.330;-6.288;2023-09-19T08:02:36;99088.25;;;21.73
74750;BMP280;63269;53.330;-6.288;2023-09-19T08:05:03;99079.28;;;21.76
74750;BMP280;63269;53.330;-6.288;2023-09-19T08:07:32;99079.28;;;21.76
74750;BMP280;63269;53.330;-6.288;2023-09-19T08:09:58;99094.81;;;21.77
74750;BMP280;63269;53.330;-6.288;2023-09-19T08:12:24;99092.91;;;21.78
74750;BMP280;63269;53.330;-6.288;2023-09-19T08:14:49;99092.91;;;21.78
74750;BMP280;63269;53.330;-6.288;2023-09-19T08:17:15;99091.44;;;21.77
74750;BMP280;63269;53.330;-6.288;2023-09-19T08:19:41;99104.06;;;21.76
74750;BMP280;63269;53.330;-6.288;2023-09-19T08:22:07;99096.78;;;21.77
74750;BMP280;63269;53.330;-6.288;2023-09-19T08:24:35;99097.50;;;21.77
74750;BMP280;63269;53.330;-6.288;2023-09-19T08:27:01;99084.16;;;21.77
74750;BMP280;63269;53.330;-6.288;2023-09-19T08:29:30;99089.50;;;21.77
74750;BMP280;63269;53.330;-6.288;2023-09-19T08:31:57;99113.50;;;21.77
74750;BMP280;63269;53.330;-6.288;2023-09-19T08:34:23;99109.63;;;21.78
74750;BMP280;63269;53.330;-6.288;2023-09-19T08:36:53;99078.31;;;21.79
74750;BMP280;63269;53.330;-6.288;2023-09-19T08:39:23;99100.41;;;21.79
74750;BMP280;63269;53.330;-6.288;2023-09-19T08:41:48;99100.41;;;21.79
74750;BMP280;63269;53.330;-6.288;2023-09-19T08:44:15;99081.75;;;21.79
74750;BMP280;63269;53.330;-6.288;2023-09-19T08:46:41;99114.47;;;21.80
74750;BMP280;63269;53.330;-6.288;2023-09-19T08:49:33;99114.47;;;21.80
74750;BMP280;63269;53.330;-6.288;2023-09-19T08:52:12;99110.63;;;21.81
74750;BMP280;63269;53.330;-6.288;2023-09-19T08:54:40;99114.47;;;21.80
74750;BMP280;63269;53.330;-6.288;2023-09-19T08:57:07;99120.53;;;21.80
74750;BMP280;63269;53.330;-6.288;2023-09-19T08:59:38;99120.53;;;21.80
74750;BMP280;63269;53.330;-6.288;2023-09-19T09:02:11;99129.31;;;21.81
74750;BMP280;63269;53.330;-6.288;2023-09-19T09:04:39;99154.03;;;21.81
74750;BMP280;63269;53.330;-6.288;2023-09-19T09:07:15;99154.03;;;21.81
74750;BMP280;63269;53.330;-6.288;2023-09-19T09:09:44;99151.38;;;21.81
74750;BMP280;63269;53.330;-6.288;2023-09-19T09:12:13;99151.38;;;21.81
74750;BMP280;63269;53.330;-6.288;2023-09-19T09:14:48;99156.00;;;21.81
74750;BMP280;63269;53.330;-6.288;2023-09-19T09:17:15;99171.25;;;21.80
74750;BMP280;63269;53.330;-6.288;2023-09-19T09:19:41;99166.66;;;21.81
74750;BMP280;63269;53.330;-6.288;2023-09-19T09:22:09;99180.00;;;21.81
74750;BMP280;63269;53.330;-6.288;2023-09-19T09:24:35;99186.06;;;21.81
74750;BMP280;63269;53.330;-6.288;2023-09-19T09:27:06;99186.31;;;21.84
74750;BMP280;63269;53.330;-6.288;2023-09-19T09:29:41;99186.31;;;21.84
74750;BMP280;63269;53.330;-6.288;2023-09-19T09:32:20;99190.69;;;21.81
74750;BMP280;63269;53.330;-6.288;2023-09-19T09:37:17;99186.06;;;21.81
74750;BMP280;63269;53.330;-6.288;2023-09-19T09:39:51;99188.72;;;21.81
74750;BMP280;63269;53.330;-6.288;2023-09-19T09:42:34;99188.72;;;21.81
74750;BMP280;63269;53.330;-6.288;2023-09-19T09:45:23;99176.13;;;21.82
74750;BMP280;63269;53.330;-6.288;2023-09-19T09:48:01;99171.25;;;21.80
74750;BMP280;63269;53.330;-6.288;2023-09-19T09:50:34;99175.63;;;21.78
74750;BMP280;63269;53.330;-6.288;2023-09-19T09:53:26;99179.00;;;21.78
74750;BMP280;63269;53.330;-6.288;2023-09-19T09:58:49;99183.16;;;21.79
74750;BMP280;63269;53.330;-6.288;2023-09-19T10:01:16;99200.34;;;21.78
74750;BMP280;63269;53.330;-6.288;2023-09-19T10:03:44;99195.72;;;21.79
74750;BMP280;63269;53.330;-6.288;2023-09-19T10:06:17;99195.72;;;21.79
74750;BMP280;63269;53.330;-6.288;2023-09-19T10:08:58;99197.22;;;21.80
74750;BMP280;63269;53.330;-6.288;2023-09-19T10:11:45;99205.22;;;21.80
74750;BMP280;63269;53.330;-6.288;2023-09-19T10:14:13;99199.66;;;21.78
74750;BMP280;63269;53.330;-6.288;2023-09-19T10:16:44;99197.69;;;21.78
74750;BMP280;63269;53.330;-6.288;2023-09-19T10:19:15;99197.94;;;21.80
74750;BMP280;63269;53.330;-6.288;2023-09-19T10:21:41;99211.97;;;21.75
74750;BMP280;63269;53.330;-6.288;2023-09-19T10:24:08;99210.78;;;21.76
74750;BMP280;63269;53.330;-6.288;2023-09-19T10:26:35;99211.03;;;21.78
74750;BMP280;63269;53.330;-6.288;2023-09-19T10:29:02;99211.03;;;21.78
74750;BMP280;63269;53.330;-6.288;2023-09-19T10:31:32;99208.84;;;21.77
74750;BMP280;63269;53.330;-6.288;2023-09-19T10:34:03;99221.00;;;21.78
74750;BMP280;63269;53.330;-6.288;2023-09-19T10:36:33;99203.75;;;21.79
74750;BMP280;63269;53.330;-6.288;2023-09-19T10:39:01;99203.75;;;21.79
74750;BMP280;63269;53.330;-6.288;2023-09-19T10:41:32;99203.75;;;21.79
74750;BMP280;63269;53.330;-6.288;2023-09-19T10:44:03;99203.75;;;21.79
74750;BMP280;63269;53.330;-6.288;2023-09-19T10:46:32;99203.75;;;21.79
74750;BMP280;63269;53.330;-6.288;2023-09-19T10:49:02;99203.75;;;21.79
74750;BMP280;63269;53.330;-6.288;2023-09-19T10:51:31;99211.75;;;21.79
74750;BMP280;63269;53.330;-6.288;2023-09-19T10:54:11;99211.03;;;21.78
74750;BMP280;63269;53.330;-6.288;2023-09-19T10:56:42;99213.94;;;21.80
74750;BMP280;63269;53.330;-6.288;2023-09-19T10:59:15;99226.56;;;21.80
74750;BMP280;63269;53.330;-6.288;2023-09-19T11:01:48;99230.72;;;21.81
74750;BMP280;63269;53.330;-6.288;2023-09-19T11:04:29;99222.25;;;21.83
74750;BMP280;63269;53.330;-6.288;2023-09-19T11:07:27;99221.50;;;21.82
74750;BMP280;63269;53.330;-6.288;2023-09-19T11:09:55;99221.50;;;21.82
74750;BMP280;63269;53.330;-6.288;2023-09-19T11:15:04;99204.03;;;21.81
74750;BMP280;63269;53.330;-6.288;2023-09-19T11:17:39;99209.34;;;21.81
74750;BMP280;63269;53.330;-6.288;2023-09-19T11:30:46;99193.34;;;21.81
74750;BMP280;63269;53.330;-6.288;2023-09-19T11:36:26;99213.00;;;21.84
74750;BMP280;63269;53.330;-6.288;2023-09-19T11:39:01;99219.06;;;21.84
74750;BMP280;63269;53.330;-6.288;2023-09-19T11:41:37;99191.91;;;21.86
74750;BMP280;63269;53.330;-6.288;2023-09-19T11:49:16;99192.63;;;21.86
74750;BMP280;63269;53.330;-6.288;2023-09-19T11:51:45;99200.38;;;21.84
74750;BMP280;63269;53.330;-6.288;2023-09-19T11:54:13;99206.44;;;21.85
74750;BMP280;63269;53.330;-6.288;2023-09-19T11:56:51;99196.75;;;21.87
74750;BMP280;63269;53.330;-6.288;2023-09-19T11:59:29;99196.75;;;21.87
74750;BMP280;63269;53.330;-6.288;2023-09-19T12:04:39;99194.38;;;21.89
74750;BMP280;63269;53.330;-6.288;2023-09-19T12:07:11;99208.19;;;21.88
74750;BMP280;63269;53.330;-6.288;2023-09-19T12:10:03;99182.22;;;21.88
74750;BMP280;63269;53.330;-6.288;2023-09-19T12:12:29;99182.22;;;21.88
74750;BMP280;63269;53.330;-6.288;2023-09-19T12:14:56;99197.25;;;21.86
74750;BMP280;63269;53.330;-6.288;2023-09-19T12:17:46;99181.97;;;21.86
74750;BMP280;63269;53.330;-6.288;2023-09-19T12:20:13;99183.41;;;21.87
74750;BMP280;63269;53.330;-6.288;2023-09-19T12:22:46;99172.00;;;21.87
74750;BMP280;63269;53.330;-6.288;2023-09-19T12:25:13;99197.03;;;21.89
74750;BMP280;63269;53.330;-6.288;2023-09-19T12:30:10;99209.63;;;21.89
74750;BMP280;63269;53.330;-6.288;2023-09-19T12:32:39;99202.84;;;21.88
74750;BMP280;63269;53.330;-6.288;2023-09-19T12:35:06;99211.84;;;21.90
74750;BMP280;63269;53.330;-6.288;2023-09-19T12:37:36;99211.84;;;21.90
74750;BMP280;63269;53.330;-6.288;2023-09-19T12:40:07;99199.25;;;21.91
74750;BMP280;63269;53.330;-6.288;2023-09-19T12:42:50;99223.72;;;21.89
74750;BMP280;63269;53.330;-6.288;2023-09-19T12:45:18;99223.72;;;21.89
74750;BMP280;63269;53.330;-6.288;2023-09-19T12:51:02;99223.72;;;21.89
74750;BMP280;63269;53.330;-6.288;2023-09-19T12:53:40;99221.78;;;21.90
74750;BMP280;63269;53.330;-6.288;2023-09-19T12:56:08;99221.78;;;21.90
74750;BMP280;63269;53.330;-6.288;2023-09-19T12:58:48;99213.53;;;21.88
74750;BMP280;63269;53.330;-6.288;2023-09-19T13:01:15;99227.13;;;21.90
74750;BMP280;63269;53.330;-6.288;2023-09-19T13:03:41;99245.81;;;21.90
74750;BMP280;63269;53.330;-6.288;2023-09-19T13:06:07;99245.81;;;21.90
74750;BMP280;63269;53.330;-6.288;2023-09-19T13:08:36;99238.28;;;21.88
74750;BMP280;63269;53.330;-6.288;2023-09-19T13:16:04;99243.84;;;21.90
74750;BMP280;63269;53.330;-6.288;2023-09-19T13:18:43;99242.13;;;21.87
74750;BMP280;63269;53.330;-6.288;2023-09-19T13:21:13;99242.13;;;21.87
74750;BMP280;63269;53.330;-6.288;2023-09-19T13:24:20;99246.53;;;21.90
74750;BMP280;63269;53.330;-6.288;2023-09-19T13:26:46;99246.53;;;21.90
74750;BMP280;63269;53.330;-6.288;2023-09-19T13:29:12;99238.53;;;21.90
74750;BMP280;63269;53.330;-6.288;2023-09-19T13:31:37;99238.53;;;21.90
74750;BMP280;63269;53.330;-6.288;2023-09-19T13:34:06;99253.31;;;21.91
74750;BMP280;63269;53.330;-6.288;2023-09-19T13:36:32;99245.31;;;21.91
74750;BMP280;63269;53.330;-6.288;2023-09-19T13:38:58;99257.47;;;21.92
74750;BMP280;63269;53.330;-6.288;2023-09-19T13:41:25;99237.59;;;21.93
74750;BMP280;63269;53.330;-6.288;2023-09-19T13:43:51;99237.59;;;21.93
74750;BMP280;63269;53.330;-6.288;2023-09-19T13:46:17;99240.25;;;21.93
74750;BMP280;63269;53.330;-6.288;2023-09-19T13:48:50;99242.19;;;21.93
74750;BMP280;63269;53.330;-6.288;2023-09-19T13:51:15;99244.38;;;21.94
74750;BMP280;63269;53.330;-6.288;2023-09-19T13:53:42;99238.06;;;21.97
74750;BMP280;63269;53.330;-6.288;2023-09-19T13:56:07;99233.19;;;21.96
74750;BMP280;63269;53.330;-6.288;2023-09-19T13:58:33;99233.19;;;21.96
74750;BMP280;63269;53.330;-6.288;2023-09-19T14:00:58;99229.81;;;21.95
74750;BMP280;63269;53.330;-6.288;2023-09-19T14:03:25;99254.84;;;21.98
74750;BMP280;63269;53.330;-6.288;2023-09-19T14:05:53;99242.22;;;21.98
74750;BMP280;63269;53.330;-6.288;2023-09-19T14:08:19;99232.72;;;21.97
74750;BMP280;63269;53.330;-6.288;2023-09-19T14:10:44;99228.16;;;21.98
74750;BMP280;63269;53.330;-6.288;2023-09-19T14:13:10;99242.94;;;21.99
74750;BMP280;63269;53.330;-6.288;2023-09-19T14:15:38;99238.31;;;21.99
74750;BMP280;63269;53.330;-6.288;2023-09-19T14:18:04;99238.31;;;21.99
74750;BMP280;63269;53.330;-6.288;2023-09-19T14:20:29;99247.56;;;21.98
74750;BMP280;63269;53.330;-6.288;2023-09-19T14:22:56;99231.78;;;22.00
74750;BMP280;63269;53.330;-6.288;2023-09-19T14:25:24;99231.78;;;22.00
74750;BMP280;63269;53.330;-6.288;2023-09-19T14:27:50;99208.97;;;21.99
74750;BMP280;63269;53.330;-6.288;2023-09-19T14:30:15;99207.03;;;22.00
74750;BMP280;63269;53.330;-6.288;2023-09-19T14:32:41;99207.03;;;22.00
74750;BMP280;63269;53.330;-6.288;2023-09-19T14:35:07;99201.97;;;22.02
74750;BMP280;63269;53.330;-6.288;2023-09-19T14:37:34;99210.69;;;22.02
74750;BMP280;63269;53.330;-6.288;2023-09-19T14:40:00;99198.78;;;22.03
74750;BMP280;63269;53.330;-6.288;2023-09-19T14:42:28;99198.78;;;22.03
74750;BMP280;63269;53.330;-6.288;2023-09-19T14:44:54;99195.88;;;22.01
74750;BMP280;63269;53.330;-6.288;2023-09-19T14:47:19;99224.75;;;22.03
74750;BMP280;63269;53.330;-6.288;2023-09-19T14:49:44;99195.38;;;22.03
74750;BMP280;63269;53.330;-6.288;2023-09-19T14:52:11;99186.44;;;22.06
74750;BMP280;63269;53.330;-6.288;2023-09-19T14:54:37;99186.44;;;22.06